Time;durP1;ratioP1;P1;durP2;ratioP2;P2;SDS_P1;SDS_P2;PMS_P1;PMS_P2;Temp;Humidity;BMP_temperature;BMP_pressure;BME280_temperature;BME280_humidity;BME280_pressure;Samples;Min_cycle;Max_cycle;Signal;HPM_P1;HPM_P2
2021/07/30 00:01:55;;;;;;;8.00;5.53;;;18.40;75.10;;;17.33;72.36;95698.81;4947829;28;20523;-68
2021/07/30 00:04:21;;;;;;;10.68;6.53;;;18.40;75.10;;;17.31;71.98;95700.91;4950647;28;20071;-67
2021/07/30 00:06:46;;;;;;;6.60;5.75;;;18.30;75.10;;;17.27;72.57;95694.47;4933870;28;21392;-68
2021/07/30 00:09:12;;;;;;;9.80;6.68;;;18.30;75.20;;;17.27;72.34;95691.78;4950365;28;20062;-67
2021/07/30 00:11:41;;;;;;;8.55;6.85;;;18.30;75.10;;;17.26;72.94;95692.84;4948368;28;20035;-67
2021/07/30 00:14:07;;;;;;;7.68;6.22;;;18.30;75.30;;;17.24;72.32;95694.94;4931221;28;20030;-68
2021/07/30 00:16:33;;;;;;;7.45;6.28;;;18.30;75.30;;;17.19;72.16;95686.84;4949620;28;20114;-68
2021/07/30 00:18:58;;;;;;;7.97;6.35;;;18.20;75.20;;;17.19;72.46;95697.50;4949695;28;20035;-68
2021/07/30 00:21:24;;;;;;;7.85;6.38;;;18.20;75.20;;;17.15;73.44;95687.34;4934448;28;20074;-68
2021/07/30 00:23:50;;;;;;;7.30;6.40;;;18.10;75.40;;;17.13;73.12;95689.44;4934384;28;20114;-67
2021/07/30 00:26:16;;;;;;;11.32;7.10;;;18.20;75.40;;;17.12;72.67;95687.81;4916570;28;20121;-68
2021/07/30 00:28:41;;;;;;;8.25;6.43;;;18.10;75.70;;;17.09;72.52;95683.00;4949518;28;20035;-68
2021/07/30 00:31:07;;;;;;;7.03;6.30;;;18.10;75.80;;;17.09;72.80;95687.50;4944620;28;20464;-68
2021/07/30 00:33:33;;;;;;;8.57;7.55;;;18.10;76.00;;;17.07;73.29;95686.94;4949312;28;20519;-67
2021/07/30 00:35:59;;;;;;;10.35;7.63;;;18.10;76.00;;;17.06;72.95;95688.78;4934581;28;20561;-67
2021/07/30 00:38:25;;;;;;;10.02;8.00;;;18.10;76.00;;;17.06;73.24;95691.44;4948169;28;20035;-67
2021/07/30 00:40:50;;;;;;;12.05;8.25;;;18.10;75.90;;;17.03;73.42;95688.47;4933074;28;20094;-67
2021/07/30 00:43:16;;;;;;;9.50;7.80;;;18.10;75.90;;;17.00;73.52;95694.25;4956043;28;20112;-67
2021/07/30 00:45:42;;;;;;;9.90;7.93;;;18.10;76.00;;;16.99;73.90;95688.16;4931405;28;20055;-66
2021/07/30 00:48:08;;;;;;;10.55;7.90;;;18.10;75.90;;;16.99;73.44;95704.09;4950687;28;20039;-67
2021/07/30 00:50:34;;;;;;;11.77;8.50;;;18.10;76.00;;;16.96;73.73;95691.25;4902560;28;20106;-67
2021/07/30 00:53:00;;;;;;;8.98;7.32;;;18.00;76.20;;;16.94;73.58;95693.34;4948889;28;20062;-67
2021/07/30 00:55:26;;;;;;;10.90;7.60;;;18.00;76.10;;;16.92;73.91;95691.97;4931014;28;20462;-67
2021/07/30 00:57:52;;;;;;;8.02;6.70;;;17.90;76.40;;;16.90;73.99;95692.22;4948672;28;20101;-67
2021/07/30 01:00:19;;;;;;;8.77;6.47;;;17.90;76.50;;;16.89;73.69;95698.56;4948548;28;20496;-67
2021/07/30 01:02:45;;;;;;;7.28;6.57;;;17.90;76.40;;;16.87;74.08;95695.34;4946777;28;20043;-68
2021/07/30 01:05:12;;;;;;;7.22;6.25;;;17.80;76.60;;;16.84;74.12;95698.47;4931730;28;20044;-67
2021/07/30 01:07:38;;;;;;;8.80;6.75;;;17.90;76.60;;;16.81;74.35;95696.31;4948481;28;20031;-68
2021/07/30 01:10:05;;;;;;;8.90;7.40;;;17.80;76.80;;;16.78;73.83;95686.16;4956032;28;20031;-68
2021/07/30 01:12:32;;;;;;;8.32;7.25;;;17.80;76.80;;;16.76;73.89;95682.94;4947810;28;20043;-68
2021/07/30 01:14:58;;;;;;;9.35;6.97;;;17.80;77.00;;;16.76;74.54;95689.06;4948380;28;20122;-68
2021/07/30 01:17:26;;;;;;;8.77;7.43;;;17.70;76.80;;;16.73;74.63;95692.16;4936203;28;20041;-68
2021/07/30 01:19:53;;;;;;;8.15;7.28;;;17.70;76.80;;;16.70;74.64;95683.88;4946991;28;20118;-68
2021/07/30 01:22:23;;;;;;;8.25;7.45;;;17.80;76.80;;;16.68;74.74;95681.44;4949508;28;20039;-68
2021/07/30 01:24:50;;;;;;;13.02;7.45;;;17.70;76.90;;;16.64;74.15;95682.94;4962521;28;20380;-67
2021/07/30 01:27:15;;;;;;;10.80;7.43;;;17.60;76.70;;;16.60;74.77;95687.13;4947651;28;21052;-67
2021/07/30 01:29:41;;;;;;;7.75;6.50;;;17.60;77.00;;;16.61;73.89;95685.28;4947135;28;20047;-69
2021/07/30 01:32:07;;;;;;;8.48;7.20;;;17.60;76.80;;;16.58;74.03;95691.06;4915248;29;20058;-67
2021/07/30 01:34:33;;;;;;;9.32;7.32;;;17.60;77.00;;;16.58;74.25;95688.41;4940990;28;20067;-67
2021/07/30 01:36:59;;;;;;;7.80;7.00;;;17.60;77.10;;;16.54;74.84;95688.88;4946445;28;20066;-67
2021/07/30 01:39:24;;;;;;;7.95;6.43;;;17.50;77.30;;;16.52;74.31;95685.66;4900065;28;20069;-67
2021/07/30 01:41:50;;;;;;;10.23;7.22;;;17.60;77.50;;;16.52;74.51;95688.31;4930514;28;20051;-67
2021/07/30 01:44:16;;;;;;;9.00;7.18;;;17.50;77.30;;;16.47;74.38;95688.19;4947591;28;20068;-67
2021/07/30 01:46:42;;;;;;;8.48;6.95;;;17.50;77.60;;;16.45;74.98;95682.31;4931020;28;20203;-67
2021/07/30 01:49:07;;;;;;;8.98;7.00;;;17.50;77.50;;;16.44;75.51;95688.66;4932230;28;20093;-68
2021/07/30 01:51:33;;;;;;;7.97;6.90;;;17.50;77.50;;;16.43;74.49;95684.41;4950914;28;20842;-67
2021/07/30 01:53:59;;;;;;;8.48;6.18;;;17.50;77.40;;;16.42;74.84;95682.78;4928665;28;20054;-68
2021/07/30 01:56:24;;;;;;;8.48;6.50;;;17.40;77.50;;;16.40;74.64;95690.19;4933391;29;20472;-68
2021/07/30 01:58:50;;;;;;;8.98;6.88;;;17.40;77.50;;;16.37;75.33;95684.53;4947516;28;20082;-68
2021/07/30 02:01:16;;;;;;;9.57;7.70;;;17.40;77.40;;;16.36;74.63;95689.03;4950024;28;20416;-68
2021/07/30 02:03:42;;;;;;;11.25;7.22;;;17.40;77.30;;;16.35;75.14;95692.75;4947415;28;20055;-68
2021/07/30 02:06:08;;;;;;;8.77;6.85;;;17.50;77.20;;;16.32;75.04;95692.41;4952314;28;20043;-68
2021/07/30 02:08:35;;;;;;;9.63;7.00;;;17.50;77.10;;;16.34;75.51;95695.63;4953111;28;20130;-68
2021/07/30 02:11:06;;;;;;;8.43;6.85;;;17.40;77.00;;;16.31;75.56;95691.59;4948495;28;20427;-69
2021/07/30 02:16:16;;;;;;;8.23;7.35;;;17.40;77.20;;;16.26;74.69;95683.50;4936673;28;20081;-69
2021/07/30 02:18:43;;;;;;;10.27;7.05;;;17.30;77.30;;;16.23;74.77;95686.63;4947624;28;20043;-68
2021/07/30 02:21:08;;;;;;;8.50;7.07;;;17.30;77.30;;;16.21;75.16;95686.06;4933168;28;20038;-69
2021/07/30 02:23:35;;;;;;;10.63;7.25;;;17.20;77.20;;;16.19;74.45;95694.25;4941864;28;20035;-68
2021/07/30 02:26:01;;;;;;;10.75;7.15;;;17.20;77.30;;;16.18;75.76;95691.84;4954810;28;20388;-69
2021/07/30 02:28:26;;;;;;;10.45;7.22;;;17.20;77.40;;;16.15;74.96;95689.66;4946291;28;20043;-68
2021/07/30 02:30:52;;;;;;;13.02;7.45;;;17.10;77.30;;;16.10;74.63;95694.88;4951080;28;20050;-67
2021/07/30 02:33:18;;;;;;;11.10;8.00;;;17.10;77.40;;;16.07;75.78;95706.75;4956810;28;20027;-67
2021/07/30 02:35:45;;;;;;;9.52;7.15;;;17.00;77.70;;;16.03;75.92;95710.09;4952447;28;20050;-67
2021/07/30 02:38:10;;;;;;;10.30;7.68;;;17.00;77.80;;;15.98;75.15;95707.31;4955941;28;20034;-67
2021/07/30 02:40:36;;;;;;;8.60;6.82;;;17.00;77.90;;;15.95;76.12;95713.09;4950759;28;20538;-67
2021/07/30 02:43:02;;;;;;;10.32;7.15;;;16.90;78.00;;;15.91;76.01;95718.06;4966010;28;20495;-68
2021/07/30 02:45:27;;;;;;;11.20;7.47;;;16.90;78.10;;;15.89;74.99;95720.94;4935494;28;20101;-67
2021/07/30 02:47:53;;;;;;;7.70;6.88;;;16.90;78.00;;;15.86;75.58;95721.41;4948829;28;20023;-68
2021/07/30 02:50:19;;;;;;;9.63;7.68;;;16.90;78.10;;;15.85;76.32;95719.81;4952647;28;20369;-67
2021/07/30 02:52:45;;;;;;;7.85;7.05;;;16.90;78.20;;;15.85;76.57;95719.81;4953869;28;20403;-67
2021/07/30 02:55:11;;;;;;;11.02;7.55;;;16.90;78.10;;;15.84;75.67;95723.50;4953522;28;20043;-67
2021/07/30 02:57:36;;;;;;;9.65;7.03;;;16.90;78.10;;;15.83;76.07;95727.16;4949018;28;20087;-67
2021/07/30 03:00:03;;;;;;;7.90;6.57;;;16.80;78.20;;;15.81;75.59;95728.44;4931380;28;20062;-67
2021/07/30 03:02:29;;;;;;;7.93;7.05;;;16.80;78.30;;;15.80;76.44;95732.91;4930990;29;20046;-67
2021/07/30 03:04:55;;;;;;;8.73;6.82;;;16.80;78.20;;;15.76;76.41;95715.88;4942021;29;20031;-69
2021/07/30 03:07:20;;;;;;;7.63;6.72;;;16.80;78.10;;;15.79;75.45;95725.19;4935068;28;20495;-67
2021/07/30 03:09:46;;;;;;;11.55;7.10;;;16.90;78.00;;;15.78;76.56;95724.41;4950896;28;20495;-67
2021/07/30 03:12:12;;;;;;;8.13;7.07;;;16.90;77.90;;;15.77;75.49;95728.09;4949249;28;20716;-67
2021/07/30 03:14:38;;;;;;;9.05;6.70;;;16.80;77.90;;;15.77;76.68;95729.94;4922791;28;20067;-67
2021/07/30 03:17:06;;;;;;;8.77;6.72;;;16.90;77.90;;;15.74;76.30;95733.84;4949933;28;20047;-68
2021/07/30 03:19:32;;;;;;;9.30;7.10;;;16.80;78.20;;;15.69;76.47;95731.09;4933242;28;20047;-67
2021/07/30 03:21:58;;;;;;;9.07;6.43;;;16.80;78.00;;;15.72;77.08;95735.13;4936296;28;20043;-67
2021/07/30 03:24:24;;;;;;;9.63;7.22;;;16.80;78.10;;;15.67;76.20;95735.81;4954405;28;20035;-67
2021/07/30 03:26:50;;;;;;;9.13;7.03;;;16.70;78.20;;;15.64;76.65;95740.78;4935294;28;20067;-67
2021/07/30 03:29:16;;;;;;;10.93;7.55;;;16.60;78.40;;;15.61;75.65;95731.41;4915148;29;20428;-67
2021/07/30 03:31:41;;;;;;;9.38;6.97;;;16.70;78.20;;;15.60;75.72;95738.56;4941245;28;20125;-67
2021/07/30 03:34:07;;;;;;;9.60;7.50;;;16.60;78.30;;;15.58;77.10;95734.50;4965519;28;20078;-67
2021/07/30 03:36:33;;;;;;;9.60;7.70;;;16.60;78.40;;;15.52;75.81;95735.41;4948732;28;20063;-67
2021/07/30 03:38:59;;;;;;;9.88;7.38;;;16.50;78.70;;;15.52;76.14;95741.53;4948048;28;20387;-68
2021/07/30 03:41:27;;;;;;;12.13;7.47;;;16.60;78.70;;;15.52;76.69;95735.41;4950369;28;20055;-67
2021/07/30 03:43:52;;;;;;;8.95;7.38;;;16.60;78.60;;;15.51;77.06;95736.44;4949726;28;20117;-71
2021/07/30 03:46:18;;;;;;;9.98;7.28;;;16.60;78.60;;;15.44;76.82;95725.16;4950924;28;20507;-70
2021/07/30 03:48:44;;;;;;;15.27;7.72;;;16.60;78.50;;;15.49;76.94;95741.16;4931607;28;20039;-67
2021/07/30 03:51:09;;;;;;;12.10;8.05;;;16.70;78.40;;;15.51;76.34;95731.16;4948947;28;20043;-69
2021/07/30 03:53:35;;;;;;;10.23;7.35;;;16.60;78.40;;;15.50;77.42;95733.00;4947161;28;20767;-69
2021/07/30 03:56:01;;;;;;;14.82;7.50;;;16.60;78.50;;;15.50;77.05;95738.28;4940293;28;20105;-71
2021/07/30 03:58:27;;;;;;;11.18;7.35;;;16.70;78.50;;;15.53;77.24;95729.06;4954061;28;20040;-68
2021/07/30 04:00:52;;;;;;;8.80;7.38;;;16.70;78.50;;;15.49;77.40;95725.28;4951204;28;20554;-68
2021/07/30 04:03:18;;;;;;;12.52;7.65;;;16.60;78.40;;;15.42;77.03;95712.13;4936060;28;20039;-68
2021/07/30 04:05:44;;;;;;;10.05;6.82;;;16.60;78.40;;;15.41;77.30;95710.53;4932146;28;20151;-68
2021/07/30 04:08:09;;;;;;;10.60;8.02;;;16.60;78.60;;;15.44;76.80;95712.72;4934560;28;20081;-67
2021/07/30 04:10:36;;;;;;;11.73;7.72;;;16.70;78.50;;;15.45;76.64;95713.50;4950863;28;20066;-67
2021/07/30 04:13:02;;;;;;;13.23;8.20;;;16.70;78.40;;;15.45;76.61;95722.28;4935581;29;20041;-68
2021/07/30 04:15:27;;;;;;;8.32;7.10;;;16.60;78.40;;;15.42;77.92;95720.09;4950962;28;20031;-66
2021/07/30 04:17:53;;;;;;;10.30;7.63;;;16.70;78.40;;;15.43;76.56;95729.66;4951759;28;20531;-67
2021/07/30 04:20:19;;;;;;;9.45;6.97;;;16.70;78.20;;;15.42;77.76;95724.56;4935749;28;20555;-67
2021/07/30 04:22:44;;;;;;;9.38;7.40;;;16.70;78.20;;;15.42;77.75;95719.28;4920968;28;20031;-67
2021/07/30 04:25:11;;;;;;;7.88;6.88;;;16.70;78.10;;;15.42;78.02;95713.97;4958984;28;20043;-67
2021/07/30 04:27:36;;;;;;;11.07;7.45;;;16.70;78.30;;;15.43;77.47;95710.28;4965644;28;20514;-66
2021/07/30 04:30:02;;;;;;;11.18;6.85;;;16.70;78.30;;;15.45;76.80;95713.50;4953833;28;20038;-66
2021/07/30 04:32:28;;;;;;;9.30;6.93;;;16.70;78.30;;;15.49;76.90;95709.38;4961882;28;20050;-66
2021/07/30 04:34:54;;;;;;;9.30;6.88;;;16.80;78.20;;;15.55;77.19;95716.41;4935606;28;20445;-67
2021/07/30 04:37:19;;;;;;;10.98;7.03;;;16.90;78.20;;;15.60;77.96;95720.00;4936338;29;20396;-67
2021/07/30 04:39:45;;;;;;;9.85;7.13;;;16.90;78.20;;;15.65;77.06;95719.34;4962735;28;20077;-67
2021/07/30 04:42:11;;;;;;;10.80;7.88;;;17.00;78.60;;;15.68;76.79;95721.53;4947498;28;20418;-67
2021/07/30 04:44:37;;;;;;;8.60;6.82;;;17.00;78.50;;;15.69;77.56;95730.28;4935230;29;20539;-67
2021/07/30 04:47:03;;;;;;;12.70;8.77;;;17.00;78.50;;;15.71;77.07;95722.91;4941566;28;20511;-68
2021/07/30 04:49:28;;;;;;;9.00;7.78;;;16.90;78.20;;;15.73;76.83;95726.94;4948324;28;20082;-67
2021/07/30 04:51:54;;;;;;;9.77;8.60;;;16.90;78.30;;;15.72;77.47;95730.63;4944854;28;20403;-67
2021/07/30 04:54:20;;;;;;;11.25;7.93;;;16.90;78.30;;;15.69;77.45;95722.31;4936424;28;20538;-67
2021/07/30 04:56:46;;;;;;;11.40;8.35;;;16.80;78.60;;;15.70;77.56;95727.41;4920902;28;20043;-70
2021/07/30 04:59:11;;;;;;;10.40;7.18;;;16.80;78.80;;;15.72;76.96;95717.38;4969721;28;20046;-69
2021/07/30 05:01:43;;;;;;;10.40;7.68;;;17.00;78.70;;;15.74;77.57;95711.84;4958164;28;20118;-70
2021/07/30 05:04:10;;;;;;;15.38;11.90;;;17.10;78.80;;;15.79;77.17;95720.69;4944040;28;20034;-68
2021/07/30 05:06:36;;;;;;;10.85;8.38;;;17.10;78.80;;;15.87;77.49;95717.72;4941706;28;20046;-66
2021/07/30 05:09:01;;;;;;;10.00;7.85;;;17.30;78.40;;;15.94;78.44;95714.94;4932943;28;20043;-67
2021/07/30 05:11:27;;;;;;;8.30;7.20;;;17.40;78.40;;;16.03;77.75;95710.88;4947710;28;20038;-66
2021/07/30 05:13:53;;;;;;;10.77;9.07;;;17.50;78.20;;;16.11;78.26;95717.72;4970130;28;20035;-67
2021/07/30 05:16:18;;;;;;;11.80;8.23;;;17.60;77.70;;;16.22;77.55;95722.19;4944243;28;20062;-67
2021/07/30 05:18:44;;;;;;;10.35;8.18;;;17.70;77.40;;;16.29;77.43;95714.88;4949868;28;20043;-67
2021/07/30 05:21:14;;;;;;;11.38;7.80;;;17.70;77.40;;;16.35;77.21;95706.00;4952523;28;20058;-67
2021/07/30 05:23:40;;;;;;;15.48;13.13;;;17.80;77.30;;;16.42;76.68;95713.84;4951193;28;20089;-67
2021/07/30 05:26:06;;;;;;;16.63;11.25;;;17.80;77.00;;;16.49;77.52;95703.88;4943573;28;20075;-67
2021/07/30 05:28:32;;;;;;;9.93;8.45;;;17.90;77.00;;;16.57;76.70;95700.06;4965518;28;20075;-67
2021/07/30 05:30:58;;;;;;;10.73;8.35;;;18.10;77.00;;;16.65;77.66;95703.13;4923523;28;20039;-66
2021/07/30 05:33:27;;;;;;;9.77;7.45;;;18.20;77.10;;;16.77;76.88;95711.13;4934891;28;20039;-66
2021/07/30 05:35:53;;;;;;;8.27;6.97;;;18.30;76.50;;;16.86;76.48;95712.34;4951655;28;20041;-67
2021/07/30 05:38:19;;;;;;;8.80;7.22;;;18.40;75.90;;;16.96;77.08;95706.38;4949376;28;20043;-68
2021/07/30 05:40:45;;;;;;;9.07;6.75;;;18.50;76.30;;;17.05;76.58;95703.13;4928433;28;20467;-67
2021/07/30 05:43:11;;;;;;;9.98;7.15;;;18.50;75.80;;;17.13;76.12;95704.56;4920002;28;20046;-67
2021/07/30 05:45:37;;;;;;;34.05;29.20;;;18.60;75.90;;;17.19;76.69;95703.59;4934889;28;20086;-66
2021/07/30 05:48:03;;;;;;;14.80;11.45;;;18.60;76.70;;;17.23;76.27;95706.63;4967377;28;20035;-67
2021/07/30 05:50:28;;;;;;;10.77;7.75;;;18.60;76.20;;;17.27;76.17;95705.91;4938828;28;20134;-67
2021/07/30 05:52:54;;;;;;;10.20;8.68;;;18.70;75.30;;;17.34;75.96;95705.72;4942224;28;20043;-67
2021/07/30 05:55:20;;;;;;;10.98;8.25;;;18.80;74.50;;;17.40;75.19;95702.09;4961670;28;20043;-66
2021/07/30 05:57:46;;;;;;;8.73;6.53;;;18.90;73.70;;;17.50;75.30;95702.28;4940651;28;20114;-66
2021/07/30 06:00:12;;;;;;;7.80;6.80;;;19.10;73.50;;;17.58;74.85;95696.53;4921392;28;20171;-66
2021/07/30 06:02:38;;;;;;;8.18;6.55;;;19.20;72.00;;;17.71;74.57;95698.91;4936423;29;20055;-66
2021/07/30 06:05:04;;;;;;;8.82;6.05;;;19.40;71.40;;;17.82;73.60;95701.72;4952282;28;20091;-68
2021/07/30 06:07:32;;;;;;;9.98;6.53;;;19.50;70.60;;;17.90;73.26;95699.47;4923239;28;20023;-66
2021/07/30 06:09:58;;;;;;;9.30;6.60;;;19.60;69.30;;;18.02;72.19;95692.16;4932652;28;20043;-66
2021/07/30 06:12:24;;;;;;;30.52;22.58;;;19.80;69.30;;;18.16;73.00;95705.94;4959052;28;20058;-65
2021/07/30 06:14:49;;;;;;;11.48;7.15;;;20.10;69.60;;;18.29;72.69;95700.25;4961329;28;20051;-67
2021/07/30 06:17:15;;;;;;;10.40;6.50;;;20.10;68.30;;;18.43;71.75;95694.56;4937581;28;20035;-65
2021/07/30 06:19:41;;;;;;;8.32;6.18;;;20.40;67.30;;;18.57;71.14;95695.81;4936584;28;20039;-65
2021/07/30 06:22:06;;;;;;;8.07;6.53;;;20.80;67.50;;;18.71;72.04;95697.06;4953406;28;20090;-66
2021/07/30 06:24:36;;;;;;;9.98;7.70;;;20.90;66.30;;;18.84;71.45;95701.19;4952067;28;20416;-66
2021/07/30 06:27:01;;;;;;;7.82;6.10;;;21.00;66.70;;;18.98;71.56;95707.72;4958913;28;20141;-66
2021/07/30 06:29:27;;;;;;;9.35;5.88;;;21.10;65.40;;;19.11;70.79;95698.53;4952776;28;20031;-65
2021/07/30 06:31:53;;;;;;;9.23;5.95;;;21.10;66.10;;;19.25;71.29;95694.41;4963605;28;20027;-66
2021/07/30 06:34:19;;;;;;;8.65;5.50;;;21.40;66.10;;;19.39;71.05;95700.13;4933917;28;20036;-68
2021/07/30 06:36:44;;;;;;;12.60;7.55;;;21.60;66.50;;;19.52;71.00;95699.69;4947079;28;20497;-66
2021/07/30 06:39:10;;;;;;;8.10;6.32;;;21.70;65.90;;;19.67;70.06;95707.03;4930558;29;20472;-67
2021/07/30 06:41:36;;;;;;;12.20;8.15;;;21.70;63.40;;;19.79;69.17;95705.81;4936265;28;20573;-67
2021/07/30 06:44:02;;;;;;;15.98;9.70;;;22.00;64.10;;;19.93;69.14;95700.84;4952770;28;20494;-73
2021/07/30 06:46:28;;;;;;;8.50;5.70;;;22.10;63.40;;;20.09;68.02;95694.50;4917388;29;20091;-67
2021/07/30 06:48:53;;;;;;;7.45;4.82;;;22.30;60.40;;;20.25;66.78;95697.28;4950663;28;20028;-68
2021/07/30 06:51:19;;;;;;;9.40;5.00;;;22.50;60.00;;;20.39;65.86;95703.75;4946604;28;20501;-66
2021/07/30 06:53:45;;;;;;;8.05;4.85;;;22.70;59.10;;;20.54;65.34;95703.84;4958750;28;20097;-68
2021/07/30 06:56:11;;;;;;;6.10;5.10;;;22.70;57.50;;;20.69;64.61;95703.91;4939690;28;20031;-66
2021/07/30 06:58:37;;;;;;;13.88;8.63;;;22.90;57.10;;;20.84;64.76;95699.69;4926773;28;20134;-71
2021/07/30 07:01:04;;;;;;;13.57;8.70;;;23.10;57.80;;;21.00;63.70;95698.63;4928468;28;20050;-68
2021/07/30 07:03:30;;;;;;;10.77;6.50;;;23.30;55.40;;;21.16;62.56;95702.97;4920286;28;20071;-66
2021/07/30 07:05:56;;;;;;;8.73;5.47;;;23.50;53.90;;;21.31;61.95;95703.03;4947390;28;20581;-65
2021/07/30 07:08:21;;;;;;;8.10;4.53;;;23.60;54.50;;;21.46;62.54;95696.06;4967450;28;20110;-66
2021/07/30 07:10:47;;;;;;;12.15;7.88;;;23.70;55.30;;;21.61;62.12;95701.41;4913936;29;20032;-67
2021/07/30 07:13:15;;;;;;;11.65;7.15;;;23.90;53.90;;;21.77;61.43;95697.69;4914519;29;20032;-69
2021/07/30 07:15:45;;;;;;;9.52;5.45;;;24.10;54.60;;;21.90;60.58;95694.44;4948655;28;20089;-68
2021/07/30 07:18:11;;;;;;;11.10;8.07;;;24.10;55.30;;;22.00;61.07;95697.09;4953777;28;20115;-70
2021/07/30 07:20:38;;;;;;;7.72;4.90;;;24.10;53.40;;;22.08;61.17;95694.97;4942677;28;20430;-68
2021/07/30 07:23:03;;;;;;;10.43;6.45;;;24.10;53.50;;;22.16;60.54;95694.41;4951413;28;20055;-67
2021/07/30 07:25:29;;;;;;;8.10;5.07;;;24.20;53.90;;;22.28;60.38;95690.38;4955586;28;20035;-68
2021/07/30 07:27:55;;;;;;;6.68;5.05;;;24.50;52.70;;;22.40;60.28;95687.38;4968411;28;20050;-74
2021/07/30 07:30:21;;;;;;;6.75;5.05;;;24.60;53.50;;;22.57;60.01;95687.03;4946980;28;20039;-65
2021/07/30 07:32:47;;;;;;;6.60;4.95;;;24.80;53.30;;;22.72;59.25;95686.19;4936683;29;20046;-67
2021/07/30 07:35:12;;;;;;;17.42;13.20;;;25.10;52.00;;;22.88;59.10;95677.03;4936567;28;20040;-69
2021/07/30 07:37:38;;;;;;;7.85;5.50;;;25.20;51.70;;;23.04;59.06;95678.50;4930371;28;20581;-70
2021/07/30 07:40:05;;;;;;;7.70;5.43;;;25.50;51.30;;;23.23;57.98;95665.25;4971989;28;20065;-70
2021/07/30 07:42:31;;;;;;;7.85;5.25;;;25.60;51.30;;;23.40;58.47;95676.41;4937157;28;20043;-70
2021/07/30 07:44:57;;;;;;;7.00;4.85;;;25.70;52.10;;;23.56;57.69;95677.13;4948717;28;20860;-68
2021/07/30 07:47:22;;;;;;;7.22;6.00;;;25.90;49.70;;;23.70;57.62;95670.00;4962160;28;20070;-70
2021/07/30 07:49:48;;;;;;;7.65;5.72;;;26.00;51.00;;;23.88;57.23;95675.75;4946516;28;20035;-71
2021/07/30 07:52:14;;;;;;;6.60;4.68;;;26.10;48.90;;;23.97;56.34;95671.34;4972884;28;20073;-70
2021/07/30 07:54:40;;;;;;;7.07;4.00;;;26.10;48.20;;;24.08;56.58;95664.81;4924491;28;20043;-72
2021/07/30 07:57:06;;;;;;;10.00;6.05;;;26.40;49.50;;;24.24;56.53;95658.19;4946657;28;20200;-65
2021/07/30 07:59:38;;;;;;;6.70;4.88;;;26.60;49.00;;;24.43;55.14;95661.75;4935502;28;20043;-66
2021/07/30 08:02:07;;;;;;;7.75;4.22;;;26.80;48.80;;;24.61;55.24;95662.06;4952312;28;20058;-72
2021/07/30 08:04:32;;;;;;;14.27;8.55;;;27.10;48.80;;;24.77;55.36;95660.00;4951247;28;20039;-68
2021/07/30 08:07:02;;;;;;;7.18;5.78;;;27.00;47.80;;;24.94;54.11;95671.88;4920412;29;20090;-68
2021/07/30 08:09:29;;;;;;;7.88;5.50;;;27.20;47.90;;;25.12;54.96;95666.78;4920059;28;20035;-69
2021/07/30 08:11:56;;;;;;;10.88;6.72;;;27.60;47.80;;;25.28;54.99;95665.47;4920693;28;20387;-68
2021/07/30 08:14:21;;;;;;;7.93;5.20;;;27.70;48.60;;;25.39;55.13;95672.31;4957521;28;20031;-68
2021/07/30 08:16:48;;;;;;;6.55;4.78;;;27.70;47.60;;;25.54;54.65;95664.00;4955586;28;20120;-68
2021/07/30 08:19:14;;;;;;;8.98;4.82;;;28.00;49.00;;;25.70;54.85;95671.84;4965329;28;20499;-68
2021/07/30 08:21:40;;;;;;;8.95;5.65;;;28.10;48.50;;;25.85;54.89;95661.63;4956536;28;20098;-68
2021/07/30 08:24:06;;;;;;;11.68;9.27;;;28.30;47.70;;;25.98;54.83;95662.72;4954941;28;20169;-69
2021/07/30 08:26:32;;;;;;;8.48;6.13;;;28.30;48.00;;;26.13;54.59;95665.16;4972465;28;20075;-68
2021/07/30 08:28:57;;;;;;;6.70;5.35;;;28.60;47.30;;;26.27;54.27;95659.00;4938978;28;20106;-68
2021/07/30 08:31:26;;;;;;;7.53;5.35;;;28.60;46.90;;;26.35;52.51;95661.00;4970564;28;20550;-68
2021/07/30 08:33:52;;;;;;;8.18;5.55;;;28.80;46.50;;;26.49;53.43;95661.81;4970147;28;21775;-69
2021/07/30 08:36:18;;;;;;;7.53;5.22;;;28.80;45.70;;;26.61;52.92;95664.78;4941127;28;20055;-69
2021/07/30 08:38:44;;;;;;;10.38;6.50;;;29.10;45.40;;;26.73;52.69;95662.38;4951676;28;20625;-69
2021/07/30 08:41:10;;;;;;;10.70;7.45;;;29.30;45.90;;;26.90;52.62;95660.94;4952103;28;20051;-69
2021/07/30 08:43:36;;;;;;;7.30;5.45;;;29.60;45.90;;;27.05;52.86;95674.16;4953941;28;20522;-70
2021/07/30 08:46:01;;;;;;;7.97;4.88;;;29.70;44.90;;;27.20;53.04;95659.50;4970993;28;20041;-69
2021/07/30 08:48:29;;;;;;;8.13;5.60;;;30.00;45.70;;;27.31;51.94;95660.88;4951441;28;20051;-69
2021/07/30 08:50:54;;;;;;;12.80;6.75;;;30.10;44.60;;;27.45;51.74;95667.81;4935293;28;20034;-69
2021/07/30 08:53:24;;;;;;;8.50;5.45;;;30.10;44.30;;;27.52;50.24;95650.38;4945808;28;20040;-69
2021/07/30 08:55:52;;;;;;;17.55;14.57;;;29.90;44.30;;;27.65;51.29;95661.16;4935392;28;20034;-69
2021/07/30 08:58:18;;;;;;;6.53;5.32;;;30.30;44.20;;;27.85;51.83;95659.84;4951503;28;20054;-69
2021/07/30 09:00:44;;;;;;;7.43;5.10;;;30.60;45.40;;;28.08;51.66;95651.69;4922870;28;20119;-70
2021/07/30 09:03:09;;;;;;;8.27;4.40;;;31.00;43.80;;;28.29;50.58;95647.34;4954318;28;20041;-70
2021/07/30 09:05:36;;;;;;;8.07;4.90;;;31.20;43.10;;;28.49;50.49;95645.97;4947309;28;20094;-70
2021/07/30 09:08:06;;;;;;;5.50;4.60;;;31.40;42.70;;;28.71;49.42;95647.78;4959185;28;20106;-66
2021/07/30 09:10:38;;;;;;;5.35;4.53;;;31.50;41.50;;;28.88;47.80;95647.84;4950582;28;20027;-66
2021/07/30 09:13:27;;;;;;;6.15;4.95;;;31.60;41.80;;;29.07;48.18;95650.28;4958227;28;20591;-66
2021/07/30 09:16:04;;;;;;;5.53;4.82;;;31.70;42.60;;;29.30;47.20;95646.28;4969994;28;20077;-66
2021/07/30 09:18:41;;;;;;;6.07;4.78;;;32.00;41.40;;;29.39;45.87;95640.88;4967040;28;20027;-66
2021/07/30 09:21:30;;;;;;;8.00;5.20;;;31.70;41.20;;;29.48;44.53;95639.00;4946663;28;20031;-66
2021/07/30 09:24:07;;;;;;;8.43;5.03;;;31.70;39.40;;;29.54;45.54;95637.69;4921199;29;20024;-68
2021/07/30 09:26:43;;;;;;;10.02;7.15;;;32.00;40.60;;;29.73;45.51;95635.44;4934901;28;20118;-69
2021/07/30 09:29:20;;;;;;;13.60;12.13;;;32.30;40.30;;;29.98;44.89;95635.69;4951447;28;20569;-69
2021/07/30 09:31:56;;;;;;;6.85;5.13;;;32.70;39.10;;;30.15;44.09;95632.97;4970347;28;20035;-68
2021/07/30 09:34:38;;;;;;;5.57;4.72;;;32.70;38.00;;;30.18;42.43;95627.69;4953664;28;20054;-67
2021/07/30 09:37:09;;;;;;;6.15;4.63;;;32.50;37.50;;;30.30;42.55;95626.97;4950640;28;20118;-66
2021/07/30 09:39:36;;;;;;;5.72;4.60;;;32.50;36.80;;;30.31;44.37;95622.34;4916925;28;20553;-67
2021/07/30 09:42:31;;;;;;;6.15;4.90;;;32.60;38.30;;;30.47;41.05;95616.03;4962173;28;20119;-67
2021/07/30 09:45:02;;;;;;;8.70;4.47;;;32.80;36.90;;;30.63;41.42;95618.22;4931724;28;20123;-67
2021/07/30 09:47:33;;;;;;;6.70;4.47;;;33.20;36.60;;;30.82;43.11;95615.88;4931101;28;20122;-67
2021/07/30 09:50:07;;;;;;;5.70;4.38;;;33.60;36.50;;;31.09;41.10;95609.91;4946972;28;20062;-66
2021/07/30 09:52:39;;;;;;;6.05;4.47;;;34.00;35.20;;;31.37;40.62;95606.66;4930205;29;20479;-66
2021/07/30 09:55:07;;;;;;;4.47;4.00;;;34.20;34.60;;;31.58;40.88;95604.72;4951102;28;20047;-68
2021/07/30 09:57:40;;;;;;;6.50;4.20;;;34.60;33.90;;;31.74;38.49;95595.94;4933992;28;20031;-67
2021/07/30 10:00:07;;;;;;;4.70;3.80;;;34.50;33.00;;;31.87;39.52;95594.81;4937334;28;20038;-67
2021/07/30 10:02:37;;;;;;;6.28;4.07;;;34.70;32.70;;;31.99;37.65;95597.59;4952648;28;20069;-68
2021/07/30 10:05:05;;;;;;;4.93;3.92;;;34.80;31.30;;;32.05;38.30;95592.72;4936616;28;20122;-66
2021/07/30 10:07:33;;;;;;;7.70;4.35;;;34.80;30.70;;;32.03;37.95;95594.97;4953338;28;20161;-66
2021/07/30 10:10:30;;;;;;;5.32;4.50;;;34.80;30.30;;;32.22;36.94;95590.56;4936413;28;20031;-67
2021/07/30 10:12:57;;;;;;;4.97;4.15;;;35.30;30.80;;;32.70;38.89;95582.75;4948964;28;20035;-66
2021/07/30 10:15:23;;;;;;;13.80;12.43;;;36.20;30.20;;;33.16;37.83;95590.38;4969475;28;20514;-68
2021/07/30 10:17:56;;;;;;;5.68;3.70;;;36.80;30.30;;;33.48;34.58;95590.50;4938193;28;20130;-67
2021/07/30 10:20:23;;;;;;;4.72;4.20;;;36.40;28.60;;;33.54;35.60;95585.59;4937340;28;20035;-68